Flight Track Log - Related Links

Times and Time Zones

All times are in EDT time to prevent confusion due to time zone crossing. See the N97826 flight status page for this flight to view local times or setup timezone preferences in your user account.

Time Position Orientation Groundspeed Altitude Reporting Facility
EDT Latitude Longitude Course Direction KTS MPH feet Rate Location/Type
Wed 03:31:08 PM 38.4869 -104.6656 North 154 177 10,500  Level Denver Center
Wed 03:32:01 PM 38.5264 -104.6636 North 163 188 10,500  Level Denver Center
Wed 03:32:10 PM 38.5364 -104.6614 10° North 156 180 10,500 423 Level Denver Center
Wed 03:33:12 PM 38.5775 -104.6581 North 156 180 11,000 242 Climbing Denver Center
Wed 03:34:14 PM 38.6256 -104.6494 North 157 181 11,000  Level Denver Center
Wed 03:35:16 PM 38.6669 -104.6400 10° North 157 181 11,000  Level Denver Center
Wed 03:36:25 PM 38.7133 -104.6394 North 155 178 11,000  Level Denver Center
Wed 03:37:20 PM 38.7550 -104.6408 359° North 157 181 11,000  Level Denver Center
Wed 03:38:21 PM 38.7969 -104.6383 North 157 181 11,000  Level Denver Center
Wed 03:39:23 PM 38.8439 -104.6378 North 152 175 11,000  Level Denver Center
Wed 03:40:25 PM 38.8892 -104.6358 North 156 180 11,000  Level Denver Center
Wed 03:40:26 PM 38.8903 -104.6358 360° North 153 176 11,000 97 Level Denver Center
Wed 03:41:27 PM 38.9317 -104.6369 359° North 152 175 11,100 -195 Climbing Denver Center
Wed 03:42:29 PM 38.9769 -104.6431 354° North 163 188 10,600 -484 Descending Denver Center
Wed 03:43:31 PM 39.0239 -104.6547 349° North 170 196 10,100 -293 Descending Denver Center
Wed 03:44:32 PM 39.0669 -104.6658 349° North 158 182 10,000 -48 Descending Denver Center
Wed 03:45:35 PM 39.1094 -104.6761 349° North 156 180 10,000  Level Denver Center
Wed 03:46:36 PM 39.1575 -104.6883 349° North 154 177 10,000 49 Level Denver Center
Wed 03:47:38 PM 39.1897 -104.7247 319° Northwest 143 165 10,100  Climbing Denver Center
Wed 03:48:40 PM 39.2211 -104.7586 320° Northwest 148 170 10,000  Descending Denver Center
Wed 03:49:41 PM 39.2500 -104.7947 316° Northwest 146 168 10,100  Climbing Denver Center
Wed 03:50:43 PM 39.2808 -104.8333 316° Northwest 144 166 10,000 -48 Descending Denver Center
Wed 03:51:45 PM 39.3128 -104.8653 322° Northwest 147 169 10,000  Level Denver Center
Wed 03:52:46 PM 39.3461 -104.8903 330° Northwest 142 163 10,000 -49 Level Denver Center
Wed 03:53:48 PM 39.3883 -104.9122 338° Northwest 150 173 9,900 -290 Descending Denver Center
Wed 03:54:50 PM 39.4314 -104.9367 336° Northwest 166 191 9,400 -435 Descending Denver Center
Wed 03:55:52 PM 39.4767 -104.9575 340° North 172 198 9,000 -194 Descending Denver Center
Wed 03:56:54 PM 39.5192 -104.9772 340° North 154 177 9,000  Level Denver Center
Wed 03:57:55 PM 39.5581 -104.9936 342° North 148 170 9,000  Level Denver Center
Wed 03:58:58 PM 39.6003 -105.0103 343° North 147 169 9,000  Level Denver Center
Wed 03:59:59 PM 39.6414 -105.0264 343° North 153 176 9,000  Level Denver Center
Wed 04:01:01 PM 39.6819 -105.0439 342° North 154 177 9,000  Level Denver Center
Wed 04:02:03 PM 39.7264 -105.0617 343° North 155 178 9,000  Level Denver Center
Wed 04:03:05 PM 39.7672 -105.0775 343° North 153 176 9,000  Level Denver Center
Wed 04:04:06 PM 39.8075 -105.0953 341° North 153 176 9,000  Level Denver Center
Wed 04:05:08 PM 39.8494 -105.1131 342° North 149 171 9,000  Level Denver Center
Wed 04:06:10 PM 39.8897 -105.1286 343° North 150 173 9,000  Level Denver Center
Wed 04:07:12 PM 39.9297 -105.1331 355° North 147 169 9,000  Level Denver Center
Wed 04:08:14 PM 39.9756 -105.1300 North 151 174 9,000  Level Denver Center
Wed 04:09:15 PM 40.0192 -105.1256 North 155 178 9,000  Level Denver Center
Wed 04:10:17 PM 40.0617 -105.1300 355° North 155 178 9,000  Level Denver Center
Wed 04:11:19 PM 40.1064 -105.1414 349° North 152 175 9,000 145 Level Denver Center
Wed 04:12:21 PM 40.1486 -105.1450 356° North 152 175 9,300 435 Climbing Denver Center
Wed 04:13:23 PM 40.1894 -105.1544 350° North 142 163 9,900 439 Climbing Denver Center
Wed 04:14:24 PM 40.2192 -105.1761 331° Northwest 126 145 10,200 390 Climbing Denver Center
Wed 04:15:26 PM 40.2394 -105.2128 306° West 123 142 10,700 581 Climbing Denver Center
Wed 04:16:28 PM 40.2611 -105.2525 306° West 124 143 11,400 484 Climbing Denver Center
Wed 04:17:30 PM 40.2983 -105.2581 354° North 132 152 11,700 145 Climbing Denver Center
Wed 04:18:32 PM 40.3397 -105.2589 359° North 144 166 11,700 49 Level Denver Center
Wed 04:19:33 PM 40.3756 -105.2744 342° North 130 150 11,800  Climbing Denver Center
Wed 04:20:35 PM 40.4089 -105.2972 333° Northwest 133 153 11,700  Descending Denver Center
Wed 04:21:37 PM 40.4236 -105.3406 294° West 119 137 11,800 97 Climbing Denver Center
Wed 04:22:39 PM 40.4083 -105.3286 149° Southeast 141 162 11,900  Climbing Denver Center
Wed 04:23:41 PM 40.4258 -105.3414 331° Northwest 112 129 11,800 -435 Descending Denver Center
Wed 04:24:43 PM 40.4036 -105.3025 127° Southeast 151 174 11,000 -484 Descending Denver Center
Wed 04:25:45 PM 40.4011 -105.2428 93° East 154 177 10,800 -194 Descending Denver Center

Login

Don't have an account? Register now (free) for customized features, flight alerts, and more!